KMKG/MKG METAR and TAF weather

Enter ICAO airport designator
Station Type Date Time Source
KMKG METAR 2021/04/17 01:55 UTC NOAA

KMKG 170155Z 27005KT 10SM FEW250 04/00 A2995 RMK AO2 SLP147 T00440000


Station Type Date Time Source
KMKG Decoded METAR 2021/04/17 01:55 UTC NOAA

MUSKEGON COUNTY AIRPORT, MI, United States (KMKG) 43-10N 086-14W 191M
Apr 16, 2021 - 09:55 PM EDT / 2021.04.17 0155 UTC
Wind: from the W (270 degrees) at 6 MPH (5 KT):0
Visibility: 10 mile(s):0
Sky conditions: mostly clear
Temperature: 39.9 F (4.4 C)
Dew Point: 32.0 F (0.0 C)
Relative Humidity: 73%
Pressure (altimeter): 29.95 in. Hg (1014 hPa)
ob: KMKG 170155Z 27005KT 10SM FEW250 04/00 A2995 RMK AO2 SLP147 T00440000
cycle: 2

Station Type Date Time Source
KMKG TAF 2021/04/16 19:58 UTC NOAA

TAF
AMD KMKG 161856Z 1619/1718 34008KT P6SM SCT020
FM170000 VRB03KT P6SM SKC

Example: see airport list